Main page
Satellite images 15-day forecastsClimateMarine weather Cyclones Lightning AirportsFAQ Newsletter About
Weather : Europe Africa North America South America Asia Australia-Oceania Others
Languages Contact

Alpine, Texas, United States

Alpine-Casparis Municipal Airport

latitude: 30-23-03N, longitude: 103-41-00W, elevation: 1376 m


METAR: KE38 231915Z AUTO 23009G30KT 190V260 10SM CLR 30/M03 A2994 RMK AO2 T03001027
short-TAF: missing
long-TAF: missing

Time: 14:33 (19:33 UTC)

Current weather observation

The report was made 18 minutes ago, at 19:15 UTC  
Wind 09 kt from southwest with gusts up to 30 kt , varying between south and west
Temperature 30°C
Humidity 12%
Pressure 1014 hPa
Visibility 16.1 km
Clear sky

Change units
The information on this site is subject to a disclaimer
Weather : Europe Africa North America South America Asia Australia-Oceania Others
Satellite images 15-day forecastsClimateMarine weather Cyclones Lightning AirportsFAQ Languages Contact Newsletter About